Aviation Digital Data Service (ADDS)

Output produced by METARs form (1824 UTC 23 April 2019)
found at http://www.aviationweather.gov/metar/data/
 
TAF FCPP 231700Z 2318/2418 18007KT 9000 SCT013 FEW026CB 
     BECMG 2319/2322 SCT010 BKN022 
     PROB30 2414/2418 SCT013 SCT023 FEW030CB